sensor_id;sensor_type;location;lat;lon;timestamp;P1;durP1;ratioP1;P2;durP2;ratioP2
49980;SDS011;35871;51.594;7.138;2022-09-29T07:01:54;3.60;;;2.55;;
49980;SDS011;35871;51.594;7.138;2022-09-29T07:06:59;5.75;;;3.20;;
49980;SDS011;35871;51.594;7.138;2022-09-29T07:12:38;5.47;;;3.75;;
49980;SDS011;35871;51.594;7.138;2022-09-29T07:17:40;9.48;;;5.60;;
49980;SDS011;35871;51.594;7.138;2022-09-29T07:27:42;9.95;;;8.27;;
49980;SDS011;35871;51.594;7.138;2022-09-29T07:32:43;11.80;;;9.82;;
49980;SDS011;35871;51.594;7.138;2022-09-29T07:37:54;11.18;;;8.73;;
49980;SDS011;35871;51.594;7.138;2022-09-29T07:42:55;15.60;;;12.30;;
49980;SDS011;35871;51.594;7.138;2022-09-29T07:47:59;14.55;;;12.32;;
49980;SDS011;35871;51.594;7.138;2022-09-29T07:53:01;15.35;;;12.90;;
49980;SDS011;35871;51.594;7.138;2022-09-29T07:58:02;17.73;;;14.20;;
49980;SDS011;35871;51.594;7.138;2022-09-29T08:03:05;15.73;;;13.02;;
49980;SDS011;35871;51.594;7.138;2022-09-29T08:08:06;11.80;;;10.05;;
49980;SDS011;35871;51.594;7.138;2022-09-29T08:18:08;11.63;;;9.07;;
49980;SDS011;35871;51.594;7.138;2022-09-29T08:23:09;10.52;;;8.00;;
49980;SDS011;35871;51.594;7.138;2022-09-29T08:28:10;9.45;;;7.65;;
49980;SDS011;35871;51.594;7.138;2022-09-29T08:38:14;7.60;;;5.70;;
49980;SDS011;35871;51.594;7.138;2022-09-29T08:43:48;6.85;;;5.30;;
49980;SDS011;35871;51.594;7.138;2022-09-29T08:48:42;7.68;;;6.20;;
49980;SDS011;35871;51.594;7.138;2022-09-29T08:53:45;6.88;;;5.47;;
49980;SDS011;35871;51.594;7.138;2022-09-29T08:58:57;7.80;;;6.90;;
49980;SDS011;35871;51.594;7.138;2022-09-29T09:04:02;6.97;;;5.25;;
49980;SDS011;35871;51.594;7.138;2022-09-29T09:09:24;7.50;;;6.80;;
49980;SDS011;35871;51.594;7.138;2022-09-29T09:19:52;7.43;;;5.43;;
49980;SDS011;35871;51.594;7.138;2022-09-29T09:25:07;8.82;;;7.47;;
49980;SDS011;35871;51.594;7.138;2022-09-29T09:36:09;8.43;;;5.80;;
49980;SDS011;35871;51.594;7.138;2022-09-29T09:41:13;5.15;;;4.28;;
49980;SDS011;35871;51.594;7.138;2022-09-29T09:46:17;5.88;;;3.92;;
49980;SDS011;35871;51.594;7.138;2022-09-29T10:06:36;6.10;;;3.70;;
49980;SDS011;35871;51.594;7.138;2022-09-29T10:11:38;5.43;;;4.40;;
49980;SDS011;35871;51.594;7.138;2022-09-29T10:22:09;4.23;;;3.03;;
49980;SDS011;35871;51.594;7.138;2022-09-29T10:27:20;3.75;;;2.30;;
49980;SDS011;35871;51.594;7.138;2022-09-29T10:32:57;4.18;;;2.00;;
49980;SDS011;35871;51.594;7.138;2022-09-29T10:43:33;7.05;;;4.13;;
49980;SDS011;35871;51.594;7.138;2022-09-29T10:48:40;3.70;;;2.10;;
49980;SDS011;35871;51.594;7.138;2022-09-29T10:53:50;4.18;;;2.92;;
49980;SDS011;35871;51.594;7.138;2022-09-29T10:58:55;3.75;;;2.38;;
49980;SDS011;35871;51.594;7.138;2022-09-29T11:03:59;2.40;;;1.70;;
49980;SDS011;35871;51.594;7.138;2022-09-29T11:14:57;4.53;;;3.20;;
49980;SDS011;35871;51.594;7.138;2022-09-29T11:19:40;3.33;;;1.90;;
49980;SDS011;35871;51.594;7.138;2022-09-29T11:24:54;4.05;;;2.55;;
49980;SDS011;35871;51.594;7.138;2022-09-29T12:07:42;3.78;;;3.10;;
49980;SDS011;35871;51.594;7.138;2022-09-29T12:18:01;3.40;;;1.90;;
49980;SDS011;35871;51.594;7.138;2022-09-29T12:23:03;3.28;;;1.98;;
49980;SDS011;35871;51.594;7.138;2022-09-29T12:28:11;3.58;;;1.60;;
49980;SDS011;35871;51.594;7.138;2022-09-29T12:33:25;2.90;;;1.50;;
49980;SDS011;35871;51.594;7.138;2022-09-29T12:38:36;2.42;;;1.77;;
49980;SDS011;35871;51.594;7.138;2022-09-29T12:54:17;3.53;;;2.00;;
49980;SDS011;35871;51.594;7.138;2022-09-29T12:59:32;4.05;;;1.95;;
49980;SDS011;35871;51.594;7.138;2022-09-29T13:10:01;3.45;;;1.70;;
49980;SDS011;35871;51.594;7.138;2022-09-29T13:25:20;4.03;;;2.28;;
49980;SDS011;35871;51.594;7.138;2022-09-29T13:30:29;3.92;;;3.00;;
49980;SDS011;35871;51.594;7.138;2022-09-29T13:35:36;3.67;;;2.70;;
49980;SDS011;35871;51.594;7.138;2022-09-29T13:40:38;3.72;;;2.65;;
49980;SDS011;35871;51.594;7.138;2022-09-29T13:45:39;4.30;;;3.03;;
49980;SDS011;35871;51.594;7.138;2022-09-29T13:50:42;3.78;;;2.95;;
49980;SDS011;35871;51.594;7.138;2022-09-29T13:55:47;4.78;;;3.15;;
49980;SDS011;35871;51.594;7.138;2022-09-29T14:00:49;5.22;;;3.05;;
49980;SDS011;35871;51.594;7.138;2022-09-29T14:05:54;5.63;;;3.30;;
49980;SDS011;35871;51.594;7.138;2022-09-29T14:11:04;4.95;;;3.08;;
49980;SDS011;35871;51.594;7.138;2022-09-29T14:26:50;5.47;;;3.58;;
49980;SDS011;35871;51.594;7.138;2022-09-29T14:31:54;4.97;;;2.85;;
49980;SDS011;35871;51.594;7.138;2022-09-29T14:37:02;9.50;;;5.65;;
49980;SDS011;35871;51.594;7.138;2022-09-29T14:42:10;7.65;;;3.80;;
49980;SDS011;35871;51.594;7.138;2022-09-29T14:47:35;6.72;;;3.63;;
49980;SDS011;35871;51.594;7.138;2022-09-29T15:03:04;7.60;;;3.45;;
49980;SDS011;35871;51.594;7.138;2022-09-29T15:08:27;4.90;;;3.08;;
49980;SDS011;35871;51.594;7.138;2022-09-29T15:13:31;8.82;;;3.45;;
49980;SDS011;35871;51.594;7.138;2022-09-29T15:29:58;5.88;;;3.50;;
49980;SDS011;35871;51.594;7.138;2022-09-29T15:35:06;6.65;;;2.85;;
49980;SDS011;35871;51.594;7.138;2022-09-29T15:40:16;3.90;;;2.45;;
49980;SDS011;35871;51.594;7.138;2022-09-29T15:46:01;4.88;;;2.45;;
49980;SDS011;35871;51.594;7.138;2022-09-29T15:51:41;3.30;;;1.80;;
49980;SDS011;35871;51.594;7.138;2022-09-29T16:03:21;2.80;;;1.70;;
49980;SDS011;35871;51.594;7.138;2022-09-29T16:08:31;6.15;;;1.98;;
49980;SDS011;35871;51.594;7.138;2022-09-29T16:19:26;3.58;;;1.70;;
49980;SDS011;35871;51.594;7.138;2022-09-29T16:53:01;2.92;;;1.63;;
49980;SDS011;35871;51.594;7.138;2022-09-29T18:05:53;3.40;;;2.63;;
49980;SDS011;35871;51.594;7.138;2022-09-29T18:17:05;2.85;;;2.00;;
49980;SDS011;35871;51.594;7.138;2022-09-29T19:07:40;3.30;;;2.53;;
49980;SDS011;35871;51.594;7.138;2022-09-29T19:18:18;4.35;;;3.50;;
49980;SDS011;35871;51.594;7.138;2022-09-29T19:23:24;4.95;;;4.18;;
